KLIC/LIC METAR and TAF weather

Enter ICAO airport designator
Station Type Date Time Source
KLIC METAR 2021/07/26 15:55 UTC NOAA

KLIC 261555Z AUTO 28004KT 10SM CLR 26/13 A3016 RMK AO2 SLP137 T02560128


Station Type Date Time Source
KLIC Decoded METAR 2021/07/26 15:55 UTC NOAA

LIMON MUNICIPAL AIRPORT, CO, United States (KLIC) 39-16N 103-40W 1630M
Jul 26, 2021 - 11:55 AM EDT / 2021.07.26 1555 UTC
Wind: from the W (280 degrees) at 5 MPH (4 KT):0
Visibility: 10 mile(s):0
Sky conditions: clear
Temperature: 78.1 F (25.6 C)
Dew Point: 55.0 F (12.8 C)
Relative Humidity: 45%
Pressure (altimeter): 30.16 in. Hg (1021 hPa)
ob: KLIC 261555Z AUTO 28004KT 10SM CLR 26/13 A3016 RMK AO2 SLP137 T02560128
cycle: 16

Station Type Date Time Source
KLIC TAF UTC NOAA

Error!

Example: see airport list